Bamberg, South Carolina
Current Conditions -  °F | °C
As of 1:38 AM on Wednesday 26 Nov 2014 (Local Time) from KOGB Reporting Station
Moderate Rain Moderate Rain  
Wind Chill: 58°   Ceiling: 500
Heat Index: 58°   Visibility: 2.5mi
Dew Point: 55°   Wind: 7mph
Humidity: 90%   Direction: 320°NW
Pressure: 29.87"   Gusts: NA
Location:  33.3°N, 81.03°W
Report Text: KOGB 260638Z AUTO 32006KT 2 1/2SM RA BR OVC005 14/13 A2987 RMK AO2 P0005 T01440128
Loading
Personal Weather Stations






























Interactive Weather Map New forecast layout! Learn more

10-Day Weather Forecast

Advertisements
Track Severe Weather on mobile